Data for 02/01/2008

Time Sea-Level Adjusted Pressure Absolute Pressure Temperature Relative Humidity Dew Point   
(mb) (inHg) (mb) (inHg) (C) (F) (%) (C) (F)
00:05 1004 29.65 834 24.63 -2.8 27.1 65 -8.5 16.6
00:10 1004 29.65 834 24.63 -3.3 26.1 66 -8.7 16.3
00:15 1004 29.65 834 24.63 -3.3 26.1 65 -8.9 16
00:20 1004 29.65 834 24.63 -3.4 25.9 67 -8.7 16.4
00:25 1004 29.65 834 24.63 -3.6 25.5 68 -8.7 16.3
00:30 1004 29.65 833 24.6 -3.7 25.3 66 -9.1 15.6
00:35 1004 29.65 833 24.6 -3.6 25.5 67 -8.8 16.1
00:40 1004 29.65 833 24.6 -3.5 25.6 67 -8.8 16.1
00:45 1004 29.65 833 24.6 -3.6 25.6 67 -8.8 16.1
00:50 1004 29.65 833 24.6 -3.8 25.2 68 -8.8 16.1
00:55 1004 29.65 833 24.6 -4 24.8 67 -9.3 15.3
01:00 1004 29.65 833 24.6 -4 24.9 68 -9.1 15.6
01:05 1004 29.65 833 24.6 -3.9 25.1 67 -9.1 15.6
01:10 1004 29.65 833 24.6 -3.6 25.5 66 -9 15.7
01:15 1004 29.65 833 24.6 -3.7 25.4 67 -9 15.9
01:20 1004 29.65 833 24.6 -3.8 25.2 68 -8.9 16.1
01:25 1004 29.65 833 24.6 -3.8 25.2 69 -8.6 16.6
01:30 1004 29.65 833 24.6 -3.7 25.3 69 -8.5 16.7
01:35 1004 29.65 833 24.6 -3.5 25.6 66 -9.1 15.7
01:40 1004 29.65 833 24.6 -3 26.6 63 -9.1 15.6
01:45 1004 29.65 833 24.6 -2.9 26.7 64 -8.8 16.2
01:50 1004 29.65 833 24.6 -2.7 27.1 61 -9.3 15.3
01:55 1004 29.65 833 24.6 -2.6 27.3 59 -9.5 14.8
02:00 1004 29.65 833 24.6 -2.4 27.6 61 -8.9 16
02:05 1004 29.65 833 24.6 -2.7 27.2 64 -8.6 16.6
02:10 1004 29.65 833 24.6 -2.7 27.1 64 -8.6 16.6
02:15 1004 29.65 833 24.6 -3 26.6 68 -8.1 17.3
02:20 1004 29.65 833 24.6 -3.2 26.3 65 -8.8 16.2
02:25 1004 29.65 833 24.6 -3.1 26.5 65 -8.6 16.4
02:30 1004 29.65 833 24.6 -3 26.5 66 -8.6 16.6
02:35 1004 29.65 834 24.63 -3 26.6 65 -8.8 16.2
02:40 1004 29.65 834 24.63 -2.9 26.8 64 -8.8 16.1
02:45 1005 29.68 834 24.63 -2.8 27 63 -8.9 16
02:50 1005 29.68 834 24.63 -2.6 27.4 62 -8.9 16
02:55 1005 29.68 834 24.63 -2.5 27.5 63 -8.6 16.5
03:00 1005 29.68 834 24.63 -2.7 27.1 64 -8.5 16.6
03:05 1005 29.68 834 24.63 -2.9 26.9 64 -8.8 16.2
03:10 1005 29.68 834 24.63 -2.8 26.9 64 -8.7 16.3
03:15 1005 29.68 834 24.63 -2.9 26.8 64 -8.8 16.2
03:20 1005 29.68 834 24.63 -3.1 26.5 63 -9.2 15.4
03:25 1005 29.68 834 24.63 -3 26.6 61 -9.5 14.9
03:30 1005 29.68 834 24.63 -2.9 26.8 61 -9.4 15
03:35 1005 29.68 834 24.63 -2.7 27.1 59 -9.6 14.7
03:40 1005 29.68 834 24.63 -2.6 27.3 59 -9.6 14.7
03:45 1005 29.68 834 24.63 -2.6 27.4 59 -9.6 14.7
03:50 1005 29.68 834 24.63 -2.6 27.4 58 -9.8 14.4
03:55 1005 29.68 834 24.63 -2.5 27.5 58 -9.7 14.5
04:00 1005 29.68 834 24.63 -2.5 27.5 58 -9.6 14.7
04:05 1005 29.68 834 24.63 -2.5 27.4 59 -9.5 14.8
04:10 1005 29.68 834 24.63 -2.7 27.2 59 -9.5 14.8
04:15 1005 29.68 834 24.63 -2.8 26.9 60 -9.5 14.9
04:20 1005 29.68 835 24.66 -2.9 26.8 60 -9.6 14.7
04:25 1005 29.68 835 24.66 -2.8 26.9 60 -9.5 14.9
04:30 1005 29.68 835 24.66 -2.9 26.9 60 -9.6 14.7
04:35 1005 29.68 835 24.66 -3 26.5 60 -9.8 14.4
04:40 1006 29.71 835 24.66 -3.2 26.3 61 -9.8 14.4
04:45 1006 29.71 835 24.66 -3.2 26.3 61 -9.7 14.6
04:50 1006 29.71 835 24.66 -3.1 26.4 60 -9.8 14.3
04:55 1006 29.71 835 24.66 -3.1 26.5 61 -9.7 14.6
05:00 1006 29.71 835 24.66 -3.1 26.4 61 -9.6 14.6
05:05 1006 29.71 835 24.66 -3.2 26.2 61 -9.7 14.6
05:10 1006 29.71 835 24.66 -3.2 26.2 60 -9.9 14.2
05:15 1006 29.71 835 24.66 -3.3 26 60 -10.1 13.8
05:20 1006 29.71 835 24.66 -3.5 25.6 59 -10.3 13.4
05:25 1006 29.71 835 24.66 -3.7 25.3 59 -10.6 12.8
05:30 1006 29.71 835 24.66 -3.9 25 59 -10.8 12.6
05:35 1006 29.71 835 24.66 -3.9 24.9 59 -10.8 12.5
05:40 1006 29.71 835 24.66 -4 24.8 59 -11 12.3
05:45 1006 29.71 835 24.66 -4.1 24.7 58 -11.1 12.1
05:50 1006 29.71 835 24.66 -4.3 24.3 58 -11.3 11.6
05:55 1006 29.71 835 24.66 -4.4 24 58 -11.5 11.4
06:00 1006 29.71 836 24.69 -4.3 24.3 56 -11.8 10.8
06:05 1006 29.71 836 24.69 -4.1 24.6 55 -11.8 10.8
06:10 1007 29.74 836 24.69 -4.1 24.7 61 -10.5 13
06:15 1007 29.74 836 24.69 -4.6 23.7 68 -9.7 14.5
06:20 1007 29.74 836 24.69 -5.1 22.8 69 -10 14
06:25 1007 29.74 836 24.69 -5.2 22.7 68 -10.1 13.8
06:30 1007 29.74 836 24.69 -5 23 66 -10.3 13.4
06:35 1007 29.74 836 24.69 -4.7 23.5 66 -10.2 13.6
06:40 1007 29.74 836 24.69 -4.8 23.3 66 -10.3 13.4
06:45 1007 29.74 836 24.69 -4.9 23.2 66 -10.3 13.4
06:50 1007 29.74 836 24.69 -4.9 23.2 65 -10.5 13.1
06:55 1007 29.74 836 24.69 -4.9 23.2 65 -10.5 13.1
07:00 1007 29.74 836 24.69 -4.9 23.1 65 -10.6 12.9
07:05 1007 29.74 836 24.69 -4.9 23.1 62 -11.2 11.8
07:10 1007 29.74 836 24.69 -4.9 23.2 60 -11.6 11.1
07:15 1007 29.74 836 24.69 -4.9 23.1 58 -12 10.4
07:20 1007 29.74 836 24.69 -5.2 22.6 58 -12.2 10
07:25 1007 29.74 836 24.69 -5.2 22.6 57 -12.4 9.7
07:30 1007 29.74 836 24.69 -5.3 22.4 56 -12.7 9.1
07:35 1007 29.74 836 24.69 -5.1 22.8 56 -12.5 9.5
07:40 1007 29.74 837 24.72 -5.1 22.9 56 -12.5 9.4
07:45 1007 29.74 837 24.72 -5.2 22.7 63 -11.1 12
07:50 1007 29.74 837 24.72 -5.7 21.8 64 -11.5 11.3
07:55 1008 29.77 837 24.72 -5.7 21.8 64 -11.5 11.3
08:00 1008 29.77 837 24.72 -5.5 22 61 -11.8 10.7
08:05 1008 29.77 837 24.72 -5.2 22.6 59 -12 10.3
08:10 1008 29.77 837 24.72 -4.9 23.1 57 -12.1 10.3
08:15 1008 29.77 837 24.72 -4.7 23.5 54 -12.6 9.4
08:20 1008 29.77 837 24.72 -4.3 24.2 54 -12.4 9.7
08:25 1008 29.77 837 24.72 -4.1 24.7 51 -12.7 9.1
08:30 1008 29.77 837 24.72 -4.2 24.5 53 -12.5 9.5
08:35 1008 29.77 837 24.72 -4.2 24.5 53 -12.5 9.5
08:40 1008 29.77 837 24.72 -4.1 24.7 52 -12.6 9.4
08:45 1008 29.77 837 24.72 -3.8 25.1 50 -12.8 8.9
08:50 1008 29.77 837 24.72 -3.6 25.6 47 -13.2 8.2
08:55 1008 29.77 837 24.72 -3.5 25.7 47 -13.3 8
09:00 1008 29.77 837 24.72 -3.5 25.8 46 -13.5 7.7
09:05 1008 29.77 837 24.72 -3.5 25.6 45 -13.9 7.1
09:10 1008 29.77 837 24.72 -3.4 25.9 44 -14 6.9
09:15 1008 29.77 837 24.72 -3.3 26.1 45 -13.6 7.5
09:20 1008 29.77 837 24.72 -3.2 26.2 44 -13.9 7
09:25 1008 29.77 837 24.72 -3.1 26.4 43 -13.9 7
09:30 1008 29.77 837 24.72 -3 26.6 44 -13.7 7.4
09:35 1008 29.77 837 24.72 -3 26.6 44 -13.6 7.6
09:40 1008 29.77 837 24.72 -3.1 26.5 45 -13.5 7.6
09:45 1008 29.77 837 24.72 -2.9 26.7 43 -14 6.9
09:50 1008 29.77 837 24.72 -2.8 26.9 44 -13.6 7.6
09:55 1008 29.77 837 24.72 -2.9 26.9 43 -13.7 7.3
10:00 1008 29.77 837 24.72 -2.9 26.8 44 -13.5 7.7
10:05 1008 29.77 837 24.72 -2.9 26.8 44 -13.6 7.5
10:10 1008 29.77 837 24.72 -2.9 26.8 45 -13.3 8
10:15 1008 29.77 837 24.72 -2.8 27 44 -13.5 7.7
10:20 1008 29.77 837 24.72 -2.7 27.1 44 -13.3 8.1
10:25 1008 29.77 837 24.72 -2.8 27 44 -13.3 8
10:30 1008 29.77 838 24.75 -2.7 27.2 44 -13.2 8.2
10:35 1008 29.77 838 24.75 -2.7 27.2 46 -12.8 9
10:40 1009 29.8 838 24.75 -2.7 27.2 47 -12.5 9.5
10:45 1009 29.8 838 24.75 -2.7 27.2 46 -12.7 9.2
10:50 1009 29.8 838 24.75 -2.5 27.4 45 -13 8.6
10:55 1009 29.8 838 24.75 -2.4 27.7 44 -13.1 8.3
11:00 1009 29.8 838 24.75 -2.3 27.9 42 -13.5 7.7
11:05 1009 29.8 838 24.75 -2.2 28.1 42 -13.5 7.7
11:10 1009 29.8 838 24.75 -2 28.3 43 -13 8.6
11:15 1009 29.8 838 24.75 -2 28.4 42 -13.2 8.3
11:20 1009 29.8 838 24.75 -1.9 28.5 42 -13.1 8.4
11:25 1009 29.8 838 24.75 -1.8 28.7 43 -12.9 8.7
11:30 1009 29.8 838 24.75 -1.9 28.6 42 -13.3 8.1
11:35 1009 29.8 838 24.75 -2 28.4 42 -13.3 8
11:40 1009 29.8 838 24.75 -1.9 28.5 42 -13.1 8.5
11:45 1009 29.8 838 24.75 -1.8 28.7 42 -13 8.6
11:50 1009 29.8 838 24.75 -1.7 29 42 -12.9 8.8
11:55 1009 29.8 838 24.75 -1.7 29 41 -13.4 7.9
12:00 1009 29.8 838 24.75 -1.7 29 40 -13.5 7.7
12:05 1009 29.8 838 24.75 -1.6 29.1 41 -13.2 8.2
12:10 1009 29.8 838 24.75 -1.5 29.3 39 -13.6 7.5
12:15 1009 29.8 838 24.75 -1.5 29.2 42 -13 8.6
12:20 1009 29.8 838 24.75 -1.5 29.3 40 -13.5 7.8
12:25 1009 29.8 838 24.75 -1.5 29.3 40 -13.5 7.6
12:30 1009 29.8 838 24.75 -1.5 29.2 40 -13.6 7.5
12:35 1009 29.8 838 24.75 -1.6 29.1 43 -12.7 9.1
12:40 1009 29.8 838 24.75 -1.6 29 42 -13.1 8.5
12:45 1009 29.8 838 24.75 -1.8 28.8 41 -13.5 7.7
12:50 1009 29.8 838 24.75 -1.8 28.8 40 -13.7 7.4
12:55 1009 29.8 838 24.75 -1.8 28.8 42 -13.2 8.3
13:00 1009 29.8 838 24.75 -1.8 28.8 41 -13.3 8
13:05 1009 29.8 838 24.75 -1.7 28.9 43 -12.8 8.9
13:10 1009 29.8 838 24.75 -1.6 29.1 41 -13.1 8.4
13:15 1009 29.8 838 24.75 -1.6 29.2 41 -13.1 8.5
13:20 1009 29.8 838 24.75 -1.5 29.3 43 -12.6 9.3
13:25 1009 29.8 838 24.75 -1.5 29.2 41 -13.3 8.1
13:30 1009 29.8 838 24.75 -1.5 29.3 39 -13.6 7.5
13:35 1009 29.8 838 24.75 -1.3 29.6 39 -13.6 7.6
13:40 1009 29.8 838 24.75 -1.2 29.8 41 -13 8.6
13:45 1009 29.8 838 24.75 -1.2 29.9 40 -13.1 8.3
13:50 1009 29.8 838 24.75 -1.1 30.1 39 -13.5 7.8
13:55 1009 29.8 838 24.75 -1 30.1 38 -13.5 7.6
14:00 1009 29.8 838 24.75 -1.1 30 40 -13.1 8.4
14:05 1009 29.8 838 24.75 -0.8 30.5 38 -13.3 8.1
14:10 1009 29.8 838 24.75 -0.6 30.9 39 -13 8.7
14:15 1009 29.8 838 24.75 -0.6 30.9 39 -12.9 8.9
14:20 1009 29.8 838 24.75 -1.1 30.1 41 -12.7 9.2
14:25 1009 29.8 838 24.75 -1.3 29.7 42 -12.7 9.2
14:30 1009 29.8 838 24.75 -1.2 29.9 43 -12.3 9.9
14:35 1009 29.8 838 24.75 -1.2 29.8 41 -12.8 9
14:40 1009 29.8 838 24.75 -1.3 29.7 44 -12.1 10.3
14:45 1009 29.8 838 24.75 -1.4 29.6 44 -12.1 10.2
14:50 1009 29.8 838 24.75 -1.5 29.3 46 -11.7 11
14:55 1009 29.8 838 24.75 -1.7 29 46 -11.9 10.7
15:00 1009 29.8 838 24.75 -1.8 28.7 46 -11.9 10.6
15:05 1009 29.8 838 24.75 -1.9 28.6 45 -12.4 9.6
15:10 1009 29.8 838 24.75 -2 28.4 46 -12.2 10.1
15:15 1009 29.8 838 24.75 -2 28.4 45 -12.6 9.4
15:20 1009 29.8 838 24.75 -1.9 28.6 46 -12.1 10.2
15:25 1009 29.8 838 24.75 -1.8 28.8 47 -11.8 10.8
15:30 1009 29.8 838 24.75 -1.8 28.8 46 -11.9 10.6
15:35 1009 29.8 838 24.75 -1.9 28.6 47 -11.8 10.7
15:40 1009 29.8 838 24.75 -1.9 28.5 45 -12.4 9.7
15:45 1009 29.8 838 24.75 -1.8 28.8 44 -12.4 9.8
15:50 1009 29.8 838 24.75 -1.4 29.5 42 -12.7 9.2
15:55 1009 29.8 838 24.75 -1.4 29.5 41 -13.1 8.4
16:00 1009 29.8 838 24.75 -1.4 29.5 41 -12.9 8.8
16:05 1009 29.8 838 24.75 -1.4 29.5 41 -13.1 8.4
16:10 1009 29.8 838 24.75 -1.5 29.3 42 -12.9 8.8
16:15 1009 29.8 838 24.75 -1.5 29.4 42 -12.9 8.7
16:20 1009 29.8 838 24.75 -1.7 29 41 -13.2 8.2
16:25 1009 29.8 838 24.75 -1.8 28.8 41 -13.5 7.8
16:30 1009 29.8 838 24.75 -1.9 28.6 42 -13.2 8.2
16:35 1009 29.8 838 24.75 -1.9 28.5 42 -13.1 8.3
16:40 1009 29.8 838 24.75 -2.1 28.3 44 -12.8 8.9
16:45 1009 29.8 838 24.75 -2.2 28 44 -12.9 8.8
16:50 1009 29.8 838 24.75 -2.4 27.6 45 -12.7 9.1
16:55 1009 29.8 839 24.78 -2.5 27.5 45 -12.9 8.8
17:00 1009 29.8 839 24.78 -2.6 27.4 45 -13 8.6
17:05 1009 29.8 839 24.78 -2.7 27.1 45 -13 8.5
17:10 1009 29.8 839 24.78 -2.8 27 45 -13.3 8.1
17:15 1009 29.8 839 24.78 -2.8 27 43 -13.6 7.5
17:20 1009 29.8 839 24.78 -2.6 27.4 43 -13.6 7.6
17:25 1009 29.8 839 24.78 -2.5 27.5 43 -13.5 7.7
17:30 1010 29.83 839 24.78 -2.6 27.3 43 -13.6 7.5
17:35 1010 29.83 839 24.78 -2.7 27.2 44 -13.3 8
17:40 1010 29.83 839 24.78 -2.8 27 43 -13.6 7.6
17:45 1010 29.83 839 24.78 -2.5 27.5 42 -13.7 7.3
17:50 1010 29.83 839 24.78 -2.4 27.6 43 -13.3 8
17:55 1010 29.83 839 24.78 -2.4 27.6 43 -13.4 7.9
18:00 1010 29.83 839 24.78 -2.5 27.5 44 -13.3 8.1
18:05 1010 29.83 839 24.78 -2.6 27.3 45 -13.1 8.5
18:10 1010 29.83 839 24.78 -2.7 27.1 46 -12.9 8.8
18:15 1010 29.83 839 24.78 -2.8 26.9 47 -12.7 9.1
18:20 1010 29.83 839 24.78 -2.9 26.7 47 -12.8 8.9
18:25 1010 29.83 839 24.78 -3 26.5 47 -12.8 9
18:30 1010 29.83 839 24.78 -3.2 26.2 47 -13 8.5
18:35 1010 29.83 839 24.78 -3.2 26.2 47 -12.9 8.9
18:40 1010 29.83 839 24.78 -3.2 26.2 47 -13.1 8.5
18:45 1010 29.83 839 24.78 -3.4 25.8 48 -13 8.7
18:50 1010 29.83 839 24.78 -3.7 25.4 47 -13.3 8
18:55 1010 29.83 839 24.78 -3.7 25.3 47 -13.4 7.9
19:00 1010 29.83 839 24.78 -3.6 25.6 46 -13.6 7.6
19:05 1010 29.83 839 24.78 -3.4 25.8 46 -13.4 7.9
19:10 1010 29.83 840 24.81 -3.5 25.7 47 -13.4 8
19:15 1010 29.83 839 24.78 -3.5 25.7 47 -13.4 7.9
19:20 1010 29.83 840 24.81 -3.5 25.6 48 -13.2 8.3
19:25 1010 29.83 840 24.81 -3.6 25.5 48 -13.2 8.3
19:30 1010 29.83 840 24.81 -3.7 25.4 49 -12.9 8.7
19:35 1010 29.83 840 24.81 -3.6 25.4 49 -12.8 8.9
19:40 1011 29.85 840 24.81 -3.6 25.5 51 -12.4 9.8
19:45 1011 29.85 840 24.81 -3.7 25.4 52 -12.2 10
19:50 1011 29.85 840 24.81 -3.7 25.4 52 -12.2 10
19:55 1011 29.85 840 24.81 -3.8 25.2 54 -11.8 10.8
20:00 1011 29.85 840 24.81 -3.7 25.4 55 -11.5 11.4
20:05 1011 29.85 840 24.81 -3.7 25.3 56 -11.3 11.7
20:10 1011 29.85 840 24.81 -3.8 25.1 57 -11.2 11.9
20:15 1011 29.85 840 24.81 -3.8 25.1 57 -11.1 12.1
20:20 1011 29.85 840 24.81 -4 24.9 59 -10.9 12.3
20:25 1011 29.85 840 24.81 -4.2 24.5 59 -11 12.2
20:30 1011 29.85 840 24.81 -4.2 24.4 59 -11.2 11.9
20:35 1011 29.85 840 24.81 -4.1 24.6 58 -11.2 11.8
20:40 1011 29.85 840 24.81 -4.1 24.6 57 -11.4 11.5
20:45 1011 29.85 840 24.81 -4 24.8 55 -11.9 10.6
20:50 1011 29.85 840 24.81 -3.9 24.9 54 -11.9 10.6
20:55 1011 29.85 840 24.81 -4 24.8 55 -11.8 10.7
21:00 1011 29.85 840 24.81 -4 24.8 54 -11.9 10.5
21:05 1011 29.85 840 24.81 -4 24.7 54 -11.9 10.5
21:10 1011 29.85 840 24.81 -4.1 24.7 54 -12 10.4
21:15 1011 29.85 840 24.81 -4.1 24.6 54 -12.2 10.1
21:20 1011 29.85 840 24.81 -4.1 24.6 54 -12 10.4
21:25 1011 29.85 840 24.81 -4.2 24.4 55 -12 10.3
21:30 1011 29.85 840 24.81 -4.2 24.4 54 -12.2 10
21:35 1011 29.85 840 24.81 -4.1 24.6 54 -12.1 10.2
21:40 1011 29.85 840 24.81 -4.2 24.4 55 -12.1 10.2
21:45 1011 29.85 840 24.81 -4.3 24.2 55 -12.1 10.3
21:50 1011 29.85 840 24.81 -4.3 24.2 54 -12.2 10
21:55 1011 29.85 840 24.81 -4.3 24.3 54 -12.3 9.9
22:00 1011 29.85 840 24.81 -4.2 24.4 54 -12.1 10.2
22:05 1011 29.85 840 24.81 -4.3 24.3 53 -12.5 9.6
22:10 1011 29.85 840 24.81 -4.1 24.5 52 -12.5 9.4
22:15 1011 29.85 840 24.81 -4.1 24.6 53 -12.4 9.8
22:20 1011 29.85 840 24.81 -4.1 24.6 53 -12.4 9.7
22:25 1011 29.85 840 24.81 -4.1 24.6 53 -12.4 9.7
22:30 1011 29.85 840 24.81 -4.1 24.7 52 -12.4 9.7
22:35 1011 29.85 840 24.81 -4.1 24.7 52 -12.5 9.6
22:40 1011 29.85 840 24.81 -4.1 24.6 53 -12.3 9.8
22:45 1011 29.85 840 24.81 -4.2 24.5 53 -12.5 9.6
22:50 1011 29.85 840 24.81 -4.2 24.4 53 -12.4 9.7
22:55 1011 29.85 840 24.81 -4.2 24.4 52 -12.7 9.2
23:00 1011 29.85 840 24.81 -4.2 24.4 52 -12.8 9
23:05 1011 29.85 840 24.81 -4.3 24.3 52 -12.7 9.1
23:10 1011 29.85 840 24.81 -4.4 24.2 52 -12.9 8.8
23:15 1011 29.85 840 24.81 -4.3 24.2 52 -12.9 8.9
23:20 1011 29.85 840 24.81 -4.3 24.2 52 -12.8 8.9
23:25 1011 29.85 840 24.81 -4.3 24.2 51 -12.9 8.7
23:30 1011 29.85 841 24.83 -4.4 24 52 -12.8 8.9
23:35 1011 29.85 841 24.83 -4.5 23.8 53 -12.8 8.9
23:40 1012 29.88 841 24.83 -4.7 23.6 53 -12.8 8.9
23:45 1012 29.88 841 24.83 -4.8 23.3 54 -12.8 9
23:50 1012 29.88 841 24.83 -5 23 53 -13.1 8.5
23:55 1012 29.88 841 24.83 -5.1 22.9 54 -12.9 8.8
24:00 1012 29.88 841 24.83 -5.4 22.4 55 -13 8.6